createdAt,value
2018-02-08T00:01:27.635Z,89.40
2018-02-08T00:03:53.783Z,95.10
2018-02-08T00:06:19.924Z,90.57
2018-02-08T00:08:46.795Z,93.63
2018-02-08T00:11:12.921Z,97.57
2018-02-08T00:13:39.106Z,97.60
2018-02-08T00:16:05.614Z,89.67
2018-02-08T00:18:31.747Z,92.40
2018-02-08T00:20:57.880Z,80.03
2018-02-08T00:23:24.002Z,94.27
2018-02-08T00:25:50.148Z,97.33
2018-02-08T00:28:16.284Z,94.33
2018-02-08T00:30:43.156Z,93.90
2018-02-08T00:33:10.052Z,89.67
2018-02-08T00:35:36.185Z,83.50
2018-02-08T00:38:02.306Z,86.37
2018-02-08T00:40:28.436Z,85.23
2018-02-08T00:42:54.547Z,83.13
2018-02-08T00:45:20.696Z,93.57
2018-02-08T00:47:46.814Z,93.23
2018-02-08T00:50:12.945Z,97.77
2018-02-08T00:52:39.072Z,96.70
2018-02-08T00:55:05.173Z,88.63
2018-02-08T00:57:31.316Z,99.00
2018-02-08T00:59:57.474Z,98.67
2018-02-08T01:02:24.347Z,92.13
2018-02-08T01:04:50.475Z,89.33
2018-02-08T01:07:16.625Z,87.70
2018-02-08T01:09:42.751Z,87.70
2018-02-08T01:12:08.875Z,91.27
2018-02-08T01:14:34.999Z,90.57
2018-02-08T01:17:01.142Z,85.90
2018-02-08T01:19:27.268Z,96.90
2018-02-08T01:21:53.453Z,98.03
2018-02-08T01:24:19.574Z,99.20
2018-02-08T01:26:45.724Z,88.77
2018-02-08T01:29:11.848Z,92.83
2018-02-08T01:31:38.037Z,100.23
2018-02-08T01:34:05.314Z,89.53
2018-02-08T01:36:31.502Z,86.17
2018-02-08T01:38:58.375Z,108.80
2018-02-08T01:41:24.579Z,89.60
2018-02-08T01:43:51.506Z,100.50
2018-02-08T01:46:17.681Z,91.30
2018-02-08T01:48:43.862Z,89.60
2018-02-08T01:51:10.799Z,100.80
2018-02-08T01:53:36.919Z,94.50
2018-02-08T01:56:03.099Z,90.40
2018-02-08T01:58:29.314Z,97.07
2018-02-08T02:00:56.219Z,91.70
2018-02-08T02:03:22.342Z,99.87
2018-02-08T02:05:48.520Z,88.50
2018-02-08T02:08:14.718Z,87.17
2018-02-08T02:10:41.597Z,88.93
2018-02-08T02:13:07.771Z,96.00
2018-02-08T02:15:33.974Z,102.40
2018-02-08T02:18:00.142Z,90.60
2018-02-08T02:20:27.072Z,89.13
2018-02-08T02:22:53.202Z,92.57
2018-02-08T02:25:19.366Z,91.87
2018-02-08T02:27:46.231Z,90.60
2018-02-08T02:30:12.471Z,95.00
2018-02-08T02:32:38.677Z,101.73
2018-02-08T02:35:04.808Z,90.63
2018-02-08T02:37:30.976Z,91.20
2018-02-08T02:39:57.160Z,93.77
2018-02-08T02:42:23.293Z,90.77
2018-02-08T02:44:49.405Z,91.97
2018-02-08T02:47:15.600Z,101.80
2018-02-08T02:49:42.575Z,88.43
2018-02-08T02:52:08.751Z,82.17
2018-02-08T02:54:34.926Z,94.53
2018-02-08T02:57:01.775Z,89.77
2018-02-08T02:59:27.977Z,93.77
2018-02-08T03:01:54.953Z,88.50
2018-02-08T03:04:21.112Z,89.70
2018-02-08T03:06:47.259Z,91.43
2018-02-08T03:09:13.360Z,94.17
2018-02-08T03:11:39.529Z,103.60
2018-02-08T03:14:06.450Z,88.73
2018-02-08T03:16:32.702Z,91.13
2018-02-08T03:18:59.641Z,89.20
2018-02-08T03:21:26.587Z,82.47
2018-02-08T03:23:53.566Z,92.20
2018-02-08T03:26:19.791Z,88.97
2018-02-08T03:28:46.959Z,85.90
2018-02-08T03:31:16.921Z,87.87
2018-02-08T03:33:43.853Z,89.53
2018-02-08T03:36:10.047Z,89.73
2018-02-08T03:38:36.182Z,91.13
2018-02-08T03:41:02.324Z,101.10
2018-02-08T03:43:28.515Z,94.77
2018-02-08T03:45:54.670Z,98.50
2018-02-08T03:48:20.878Z,93.27
2018-02-08T03:50:47.127Z,95.80
2018-02-08T03:53:13.318Z,87.03
2018-02-08T03:55:39.518Z,97.30
2018-02-08T03:58:06.404Z,87.40
2018-02-08T04:00:32.572Z,90.60
2018-02-08T04:02:59.477Z,92.73
2018-02-08T04:05:32.596Z,86.63
2018-02-08T04:07:58.765Z,87.67
2018-02-08T04:10:25.689Z,84.03
2018-02-08T04:12:52.626Z,90.33
2018-02-08T04:15:19.767Z,88.37
2018-02-08T04:17:45.929Z,88.90
2018-02-08T04:20:12.824Z,92.80
2018-02-08T04:22:38.993Z,96.40
2018-02-08T04:25:05.936Z,83.77
2018-02-08T04:27:33.269Z,83.90
2018-02-08T04:30:00.190Z,88.97
2018-02-08T04:32:26.323Z,93.00
2018-02-08T04:34:52.502Z,95.57
2018-02-08T04:37:18.667Z,89.20
2018-02-08T04:39:57.134Z,85.33
2018-02-08T04:42:33.776Z,92.87
2018-02-08T04:45:12.176Z,82.57
2018-02-08T04:50:35.966Z,83.20
2018-02-08T04:53:02.170Z,86.30
2018-02-08T04:55:28.351Z,82.73
2018-02-08T04:57:54.494Z,89.37
2018-02-08T05:00:21.399Z,97.93
2018-02-08T05:02:54.656Z,82.40
2018-02-08T05:05:20.802Z,80.70
2018-02-08T05:07:47.009Z,80.20
2018-02-08T05:10:13.222Z,70.20
2018-02-08T05:12:39.423Z,82.60
2018-02-08T05:15:05.646Z,85.73
2018-02-08T05:17:31.811Z,85.07
2018-02-08T05:19:57.951Z,84.33
2018-02-08T05:22:24.094Z,77.67
2018-02-08T05:24:50.244Z,82.70
2018-02-08T05:27:16.393Z,87.80
2018-02-08T05:29:43.285Z,83.27
2018-02-08T05:32:09.409Z,89.70
2018-02-08T05:34:35.589Z,79.67
2018-02-08T05:37:09.546Z,80.53
2018-02-08T05:39:35.709Z,90.20
2018-02-08T05:45:03.232Z,89.50
2018-02-08T05:47:29.456Z,93.30
2018-02-08T05:49:55.625Z,91.80
2018-02-08T05:52:21.796Z,94.97
2018-02-08T05:54:48.758Z,86.43
2018-02-08T05:57:14.869Z,87.93
2018-02-08T05:59:41.774Z,90.70
2018-02-08T06:02:07.945Z,84.10
2018-02-08T06:04:34.909Z,87.40
2018-02-08T06:07:01.095Z,82.93
2018-02-08T06:09:27.267Z,84.60
2018-02-08T06:11:53.445Z,81.30
2018-02-08T06:14:19.617Z,80.13
2018-02-08T06:16:45.784Z,84.93
2018-02-08T06:19:11.964Z,89.63
2018-02-08T06:21:38.127Z,82.80
2018-02-08T06:24:04.280Z,92.87
2018-02-08T06:26:30.487Z,95.37
2018-02-08T06:28:56.677Z,99.00
2018-02-08T06:31:22.879Z,97.30
2018-02-08T06:33:49.844Z,96.43
2018-02-08T06:36:16.019Z,92.20
2018-02-08T06:38:42.219Z,96.20
2018-02-08T06:41:08.353Z,89.00
2018-02-08T06:43:34.550Z,106.37
2018-02-08T06:46:00.786Z,97.53
2018-02-08T06:48:27.079Z,93.57
2018-02-08T06:50:54.400Z,102.73
2018-02-08T06:53:20.562Z,112.33
2018-02-08T06:55:47.433Z,95.73
2018-02-08T06:58:13.642Z,89.20
2018-02-08T07:00:40.537Z,84.23
2018-02-08T07:03:06.727Z,89.10
2018-02-08T07:05:33.597Z,104.57
2018-02-08T07:07:59.743Z,86.17
2018-02-08T07:10:25.915Z,95.23
2018-02-08T07:12:52.820Z,87.83
2018-02-08T07:15:19.737Z,88.53
2018-02-08T07:17:45.982Z,88.77
2018-02-08T07:20:12.913Z,84.60
2018-02-08T07:22:39.175Z,92.27
2018-02-08T07:25:06.108Z,83.03
2018-02-08T07:27:32.296Z,87.10
2018-02-08T07:29:59.527Z,86.27
2018-02-08T07:32:26.487Z,90.10
2018-02-08T07:34:52.690Z,84.37
2018-02-08T07:37:19.614Z,80.00
2018-02-08T07:39:45.821Z,87.00
2018-02-08T07:42:12.041Z,94.87
2018-02-08T07:44:40.476Z,84.30
2018-02-08T07:47:08.781Z,91.43
2018-02-08T07:49:35.002Z,93.03
2018-02-08T07:52:01.186Z,88.40
2018-02-08T07:54:28.103Z,92.47
2018-02-08T07:56:54.320Z,88.57
2018-02-08T07:59:20.504Z,91.83
2018-02-08T08:01:50.997Z,82.77
2018-02-08T08:04:17.233Z,92.67
2018-02-08T08:06:43.462Z,93.77
2018-02-08T08:09:09.695Z,93.60
2018-02-08T08:11:35.862Z,86.17
2018-02-08T08:14:02.752Z,83.87
2018-02-08T08:16:29.960Z,87.80
2018-02-08T08:18:56.849Z,90.30
2018-02-08T08:21:23.040Z,91.10
2018-02-08T08:23:50.339Z,92.90
2018-02-08T08:26:16.523Z,92.30
2018-02-08T08:28:42.730Z,86.80
2018-02-08T08:31:10.643Z,99.77
2018-02-08T08:33:36.875Z,87.90
2018-02-08T08:36:03.112Z,96.47
2018-02-08T08:38:29.568Z,89.13
2018-02-08T08:40:55.785Z,87.67
2018-02-08T08:43:21.966Z,92.43
2018-02-08T08:45:49.879Z,92.37
2018-02-08T08:48:16.864Z,90.40
2018-02-08T08:50:43.045Z,84.73
2018-02-08T08:53:09.572Z,88.97
2018-02-08T08:55:35.683Z,80.73
2018-02-08T08:58:01.845Z,91.37
2018-02-08T09:00:29.574Z,89.93
2018-02-08T09:02:55.785Z,81.70
2018-02-08T09:05:21.903Z,87.63
2018-02-08T09:07:48.428Z,84.30
2018-02-08T09:10:14.653Z,84.77
2018-02-08T09:12:41.583Z,84.13
2018-02-08T09:15:11.451Z,87.87
2018-02-08T09:17:38.341Z,86.43
2018-02-08T09:20:05.291Z,85.07
2018-02-08T09:22:32.185Z,85.27
2018-02-08T09:24:59.399Z,80.30
2018-02-08T09:27:26.279Z,83.70
2018-02-08T09:29:52.435Z,86.43
2018-02-08T09:32:19.339Z,85.30
2018-02-08T09:34:45.521Z,80.70
2018-02-08T09:37:12.448Z,81.13
2018-02-08T09:39:38.584Z,82.20
2018-02-08T09:42:04.760Z,88.57
2018-02-08T09:44:31.027Z,82.73
2018-02-08T09:46:57.243Z,85.67
2018-02-08T09:49:23.534Z,87.83
2018-02-08T09:51:50.473Z,88.43
2018-02-08T09:54:16.608Z,86.50
2018-02-08T09:56:42.862Z,91.63
2018-02-08T09:59:08.977Z,82.87
2018-02-08T10:01:35.200Z,82.60
2018-02-08T10:04:01.420Z,85.63
2018-02-08T10:06:27.607Z,82.70
2018-02-08T10:08:53.783Z,79.60
2018-02-08T10:11:19.920Z,76.97
2018-02-08T10:13:46.132Z,82.07
2018-02-08T10:16:12.337Z,81.37
2018-02-08T10:18:39.312Z,79.80
2018-02-08T10:21:05.471Z,77.97
2018-02-08T10:23:31.988Z,75.57
2018-02-08T10:25:58.142Z,74.57
2018-02-08T10:28:24.307Z,83.40
2018-02-08T10:30:50.562Z,73.87
2018-02-08T10:33:16.713Z,76.40
2018-02-08T10:35:42.928Z,80.43
2018-02-08T10:38:09.055Z,81.90
2018-02-08T10:40:35.201Z,79.40
2018-02-08T10:43:01.409Z,71.17
2018-02-08T10:45:27.626Z,73.97
2018-02-08T10:47:53.793Z,81.27
2018-02-08T10:50:20.727Z,83.83
2018-02-08T10:52:46.851Z,93.10
2018-02-08T10:55:13.048Z,81.73
2018-02-08T10:57:39.244Z,82.90
2018-02-08T11:00:05.472Z,80.87
2018-02-08T11:02:32.364Z,88.10
2018-02-08T11:04:58.564Z,85.83
2018-02-08T11:07:24.807Z,74.93
2018-02-08T11:09:50.950Z,66.37
2018-02-08T11:12:17.150Z,59.57
2018-02-08T11:14:43.325Z,72.10
2018-02-08T11:17:10.220Z,59.40
2018-02-08T11:19:36.383Z,66.60
2018-02-08T11:22:02.564Z,68.07
2018-02-08T11:24:28.698Z,72.83
2018-02-08T11:26:54.892Z,64.30
2018-02-08T11:29:21.800Z,72.77
2018-02-08T11:31:47.964Z,75.50
2018-02-08T11:34:14.892Z,72.63
2018-02-08T11:36:41.004Z,71.33
2018-02-08T11:39:07.171Z,73.47
2018-02-08T11:41:34.045Z,68.07
2018-02-08T11:44:00.229Z,76.30
2018-02-08T11:46:26.376Z,71.37
2018-02-08T11:48:53.293Z,73.63
2018-02-08T11:51:20.239Z,69.60
2018-02-08T11:53:47.196Z,69.83
2018-02-08T11:56:14.103Z,71.77
2018-02-08T11:58:40.272Z,68.40
2018-02-08T12:01:07.157Z,70.17
2018-02-08T12:03:33.357Z,69.10
2018-02-08T12:06:00.274Z,70.27
2018-02-08T12:08:26.493Z,72.80
2018-02-08T12:10:52.654Z,65.53
2018-02-08T12:13:18.807Z,84.53
2018-02-08T12:15:44.982Z,65.23
2018-02-08T12:18:11.954Z,80.80
2018-02-08T12:20:38.187Z,69.53
2018-02-08T12:23:04.410Z,72.80
2018-02-08T12:25:30.562Z,72.67
2018-02-08T12:27:56.782Z,70.10
2018-02-08T12:30:23.003Z,62.37
2018-02-08T12:32:49.200Z,72.60
2018-02-08T12:35:15.352Z,79.50
2018-02-08T12:37:42.265Z,83.83
2018-02-08T12:40:08.423Z,66.53
2018-02-08T12:42:34.572Z,75.77
2018-02-08T12:45:00.760Z,77.50
2018-02-08T12:47:27.748Z,75.93
2018-02-08T12:49:53.971Z,70.30
2018-02-08T12:52:20.200Z,79.30
2018-02-08T12:54:46.340Z,79.30
2018-02-08T12:57:12.531Z,82.77
2018-02-08T12:59:38.741Z,80.90
2018-02-08T13:02:05.621Z,89.83
2018-02-08T13:04:31.815Z,88.60
2018-02-08T13:06:58.699Z,87.77
2018-02-08T13:09:24.856Z,92.87
2018-02-08T13:11:51.127Z,80.10
2018-02-08T13:14:17.282Z,87.10
2018-02-08T13:16:43.818Z,85.20
2018-02-08T13:19:09.952Z,85.03
2018-02-08T13:21:36.166Z,92.70
2018-02-08T13:24:02.383Z,89.70
2018-02-08T13:26:28.542Z,91.33
2018-02-08T13:28:54.746Z,87.10
2018-02-08T13:31:21.918Z,91.03
2018-02-08T13:33:48.108Z,82.93
2018-02-08T13:36:14.349Z,87.57
2018-02-08T13:38:40.709Z,89.33
2018-02-08T13:41:06.875Z,84.57
2018-02-08T13:43:34.058Z,83.80
2018-02-08T13:46:00.277Z,89.83
2018-02-08T13:48:26.453Z,84.43
2018-02-08T13:53:57.927Z,85.17
2018-02-08T13:56:39.798Z,80.03
2018-02-08T13:59:12.133Z,90.67
2018-02-08T14:01:52.213Z,82.73
2018-02-08T14:04:18.420Z,91.03
2018-02-08T14:06:46.640Z,93.07
2018-02-08T14:09:12.808Z,86.50
2018-02-08T14:11:39.799Z,91.37
2018-02-08T14:14:05.984Z,85.97
2018-02-08T14:16:32.928Z,86.83
2018-02-08T14:18:59.134Z,83.23
2018-02-08T14:21:25.300Z,82.23
2018-02-08T14:23:51.451Z,90.83
2018-02-08T14:26:17.663Z,88.57
2018-02-08T14:28:43.844Z,95.30
2018-02-08T14:31:10.771Z,98.40
2018-02-08T14:33:36.973Z,98.27
2018-02-08T14:36:03.164Z,101.87
2018-02-08T14:38:30.103Z,92.43
2018-02-08T14:40:56.980Z,86.80
2018-02-08T14:43:23.182Z,87.40
2018-02-08T14:45:50.116Z,96.40
2018-02-08T14:48:17.074Z,93.23
2018-02-08T14:50:44.012Z,87.43
2018-02-08T14:53:10.948Z,98.77
2018-02-08T14:55:37.914Z,91.07
2018-02-08T14:58:04.130Z,87.77
2018-02-08T15:00:31.064Z,94.17
2018-02-08T15:02:57.306Z,93.97
2018-02-08T15:05:24.206Z,93.13
2018-02-08T15:07:50.350Z,90.30
2018-02-08T15:10:16.514Z,95.37
2018-02-08T15:12:42.975Z,85.40
2018-02-08T15:15:09.157Z,89.70
2018-02-08T15:17:36.099Z,84.90
2018-02-08T15:20:03.015Z,87.40
2018-02-08T15:22:29.172Z,92.97
2018-02-08T15:24:56.088Z,91.67
2018-02-08T15:27:22.256Z,85.07
2018-02-08T15:29:49.186Z,89.83
2018-02-08T15:32:16.101Z,95.37
2018-02-08T15:34:42.296Z,125.57
2018-02-08T15:37:08.483Z,92.17
2018-02-08T15:39:35.349Z,83.57
2018-02-08T15:42:02.279Z,88.70
2018-02-08T15:44:29.194Z,82.83
2018-02-08T15:46:55.388Z,88.20
2018-02-08T15:49:21.585Z,88.23
2018-02-08T15:51:48.497Z,85.80
2018-02-08T15:54:14.706Z,89.60
2018-02-08T15:56:40.907Z,89.63
2018-02-08T15:59:07.098Z,81.70
2018-02-08T16:01:33.971Z,92.93
2018-02-08T16:04:00.124Z,93.47
2018-02-08T16:06:26.318Z,102.10
2018-02-08T16:08:53.232Z,94.90
2018-02-08T16:11:19.452Z,94.37
2018-02-08T16:13:46.379Z,102.00
2018-02-08T16:16:12.582Z,86.53
2018-02-08T16:18:38.751Z,92.13
2018-02-08T16:21:04.953Z,93.90
2018-02-08T16:23:31.150Z,97.20
2018-02-08T16:25:57.376Z,91.73
2018-02-08T16:28:23.516Z,91.17
2018-02-08T16:30:49.717Z,86.70
2018-02-08T16:33:16.660Z,88.90
2018-02-08T16:35:43.599Z,87.10
2018-02-08T16:38:10.523Z,93.97
2018-02-08T16:40:36.700Z,89.43
2018-02-08T16:43:02.884Z,86.50
2018-02-08T16:45:29.103Z,87.57
2018-02-08T16:47:55.275Z,93.00
2018-02-08T16:50:21.491Z,97.37
2018-02-08T16:52:48.423Z,87.00
2018-02-08T16:55:15.336Z,89.43
2018-02-08T16:57:41.514Z,87.47
2018-02-08T17:00:08.624Z,93.77
2018-02-08T17:02:34.853Z,86.83
2018-02-08T17:05:01.834Z,92.77
2018-02-08T17:07:28.758Z,94.70
2018-02-08T17:09:55.000Z,87.90
2018-02-08T17:12:28.893Z,92.77
2018-02-08T17:14:55.040Z,91.30
2018-02-08T17:17:21.951Z,84.67
2018-02-08T17:19:48.114Z,87.87
2018-02-08T17:22:14.987Z,88.30
2018-02-08T17:24:41.200Z,88.93
2018-02-08T17:27:07.367Z,101.57
2018-02-08T17:29:33.547Z,96.97
2018-02-08T17:31:59.733Z,96.33
2018-02-08T17:34:25.979Z,100.93
2018-02-08T17:36:52.946Z,95.27
2018-02-08T17:39:19.144Z,94.10
2018-02-08T17:41:45.343Z,102.07
2018-02-08T17:44:11.510Z,97.97
2018-02-08T17:46:38.451Z,89.67
2018-02-08T17:49:05.443Z,98.87
2018-02-08T17:51:31.602Z,96.43
2018-02-08T17:53:57.786Z,90.23
2018-02-08T17:56:23.976Z,98.53
2018-02-08T17:58:50.879Z,86.33
2018-02-08T18:01:17.045Z,89.60
2018-02-08T18:03:43.975Z,97.07
2018-02-08T18:06:10.141Z,95.40
2018-02-08T18:08:37.062Z,89.70
2018-02-08T18:11:03.242Z,92.83
2018-02-08T18:13:29.419Z,97.00
2018-02-08T18:15:55.625Z,91.27
2018-02-08T18:18:21.841Z,95.60
2018-02-08T18:20:48.032Z,102.87
2018-02-08T18:23:14.247Z,100.43
2018-02-08T18:25:41.179Z,88.07
2018-02-08T18:28:08.106Z,96.23
2018-02-08T18:30:34.297Z,97.30
2018-02-08T18:33:00.513Z,92.90
2018-02-08T18:35:26.778Z,88.57
2018-02-08T18:37:53.043Z,96.30
2018-02-08T18:40:20.024Z,86.67
2018-02-08T18:42:46.218Z,92.23
2018-02-08T18:45:13.112Z,96.50
2018-02-08T18:47:39.262Z,94.37
2018-02-08T18:50:05.554Z,92.07
2018-02-08T18:52:31.747Z,84.40
2018-02-08T18:54:58.684Z,101.40
2018-02-08T18:57:25.572Z,99.40
2018-02-08T18:59:51.779Z,98.03
2018-02-08T19:02:17.996Z,88.97
2018-02-08T19:04:44.222Z,89.10
2018-02-08T19:07:11.124Z,89.70
2018-02-08T19:09:37.306Z,94.20
2018-02-08T19:12:03.458Z,106.67
2018-02-08T19:14:29.623Z,92.07
2018-02-08T19:16:56.551Z,92.13
2018-02-08T19:19:23.514Z,99.73
2018-02-08T19:21:50.469Z,98.37
2018-02-08T19:24:17.450Z,101.27
2018-02-08T19:26:43.745Z,103.20
2018-02-08T19:29:09.931Z,95.87
2018-02-08T19:31:36.132Z,102.30
2018-02-08T19:34:02.335Z,98.30
2018-02-08T19:36:29.313Z,94.10
2018-02-08T19:38:56.318Z,93.50
2018-02-08T19:41:22.473Z,99.80
2018-02-08T19:43:48.648Z,94.30
2018-02-08T19:46:14.823Z,96.93
2018-02-08T19:48:41.035Z,94.70
2018-02-08T19:51:07.986Z,91.50
2018-02-08T19:53:34.985Z,100.23
2018-02-08T19:56:01.243Z,96.60
2018-02-08T19:58:27.444Z,99.53
2018-02-08T20:00:53.683Z,100.00
2018-02-08T20:03:19.944Z,105.70
2018-02-08T20:05:46.993Z,92.83
2018-02-08T20:08:13.993Z,89.53
2018-02-08T20:10:40.193Z,95.10
2018-02-08T20:13:06.406Z,95.50
2018-02-08T20:15:32.596Z,89.73
2018-02-08T20:17:58.812Z,92.30
2018-02-08T20:20:25.016Z,88.30
2018-02-08T20:22:51.220Z,94.17
2018-02-08T20:25:23.504Z,92.73
2018-02-08T20:27:49.745Z,102.90
2018-02-08T20:30:15.901Z,93.63
2018-02-08T20:32:42.108Z,95.03
2018-02-08T20:35:08.267Z,88.93
2018-02-08T20:37:35.213Z,93.60
2018-02-08T20:40:02.251Z,89.67
2018-02-08T20:42:34.623Z,94.20
2018-02-08T20:45:01.572Z,90.63
2018-02-08T20:47:28.499Z,90.40
2018-02-08T20:50:00.985Z,88.40
2018-02-08T20:52:27.905Z,94.80
2018-02-08T20:54:54.117Z,89.43
2018-02-08T20:57:20.469Z,101.27
2018-02-08T20:59:46.700Z,92.30
2018-02-08T21:02:12.850Z,96.10
2018-02-08T21:04:39.100Z,86.97
2018-02-08T21:07:06.012Z,92.63
2018-02-08T21:09:32.232Z,93.90
2018-02-08T21:11:58.426Z,89.90
2018-02-08T21:14:24.594Z,91.63
2018-02-08T21:16:50.849Z,87.43
2018-02-08T21:19:17.022Z,97.43
2018-02-08T21:21:43.212Z,91.80
2018-02-08T21:24:10.158Z,91.37
2018-02-08T21:26:37.053Z,91.70
2018-02-08T21:29:03.305Z,97.33
2018-02-08T21:31:30.256Z,80.13
2018-02-08T21:33:57.230Z,85.47
2018-02-08T21:36:23.435Z,87.77
2018-02-08T21:38:50.400Z,95.37
2018-02-08T21:41:17.402Z,87.37
2018-02-08T21:43:43.645Z,93.87
2018-02-08T21:46:10.576Z,95.10
2018-02-08T21:48:37.080Z,96.27
2018-02-08T21:51:03.366Z,89.13
2018-02-08T21:53:30.268Z,86.80
2018-02-08T21:55:56.451Z,87.13
2018-02-08T21:58:23.390Z,92.10
2018-02-08T22:00:50.375Z,97.07
2018-02-08T22:03:16.550Z,88.77
2018-02-08T22:05:43.433Z,85.63
2018-02-08T22:08:09.549Z,96.37
2018-02-08T22:10:36.541Z,94.03
2018-02-08T22:13:02.738Z,95.93
2018-02-08T22:15:28.956Z,93.60
2018-02-08T22:17:55.232Z,98.70
2018-02-08T22:20:21.398Z,86.40
2018-02-08T22:22:48.324Z,90.07
2018-02-08T22:25:15.219Z,93.43
2018-02-08T22:27:41.404Z,95.07
2018-02-08T22:30:08.383Z,95.57
2018-02-08T22:32:34.555Z,94.70
2018-02-08T22:35:00.739Z,97.87
2018-02-08T22:37:26.939Z,90.27
2018-02-08T22:39:53.841Z,98.60
2018-02-08T22:42:19.978Z,95.73
2018-02-08T22:44:46.147Z,96.17
2018-02-08T22:47:13.035Z,83.07
2018-02-08T22:49:39.207Z,95.77
2018-02-08T22:52:06.172Z,85.73
2018-02-08T22:54:32.370Z,91.27
2018-02-08T22:56:59.284Z,85.00
2018-02-08T22:59:25.478Z,94.97
2018-02-08T23:01:51.694Z,102.30
2018-02-08T23:04:17.901Z,91.47
2018-02-08T23:06:44.810Z,90.70
2018-02-08T23:09:11.021Z,85.90
2018-02-08T23:11:37.896Z,90.13
2018-02-08T23:14:04.019Z,90.30
2018-02-08T23:16:30.271Z,81.87
2018-02-08T23:18:57.144Z,96.70
2018-02-08T23:21:23.337Z,92.70
2018-02-08T23:23:50.198Z,98.23
2018-02-08T23:26:17.049Z,83.27
2018-02-08T23:28:43.211Z,88.70
2018-02-08T23:31:09.383Z,90.60
2018-02-08T23:33:36.376Z,84.37
2018-02-08T23:36:02.615Z,85.30
2018-02-08T23:38:28.797Z,92.40
2018-02-08T23:40:55.699Z,83.83
2018-02-08T23:43:21.835Z,84.07
2018-02-08T23:45:47.953Z,90.93
2018-02-08T23:48:14.135Z,91.83
2018-02-08T23:50:40.276Z,93.63
2018-02-08T23:53:06.445Z,93.03
2018-02-08T23:55:32.643Z,92.27
2018-02-08T23:57:58.783Z,91.57
